Accueil
METAR-TAF:

METAR-TAF

Aéroports :

Aérodrome de Koné

Koné, Nouvelle-Calédonie

latitude: 21-03-12S, longitude: 164-50-18E, altitude: 7 m

METAR: absent

Heure: 01:10 (14:10 UTC)

Prévision

Le bulletin a été fait il y a 7 heures et 15 minutes, à 06:55 UTC
Prévision valable du 19 à 06 UTC au 20 à 06 UTC
Vent 12 kt de nord/nord-est
Visibilité 10 km ou plus
Nuages épars à une hauteur de 3000 ft
Nuages fragmentés à une hauteur de 5000 ft
Ciel couvert à une hauteur de 11000 ft
pluie
Temporairement
du 19 à 06 UTC au 19 à 21 UTC
Vent 15 kt de ouest/sud-ouest
Visibilité: 3000 m
Nuages fragmentés à une hauteur de 1200 ft
Nuages fragmentés à une hauteur de 2000 ft, Cumulonimbus.
averses de pluie
Evoluant progressivement
du 20 à 00 UTC au 20 à 02 UTC
Vent 12 kt de sud-ouest

TAF: NWWD 190655Z 1906/2006 02012KT 9999 RA SCT030 BKN050 OVC110 TEMPO 1906/1921 25015KT 3000 SHRA BKN012 BKN020CB BECMG 2000/2002 23012KT

Observations et prévisions météorologiques de plus de 4000 aéroports (messages METAR et TAF).

Les stations disponibles sont représentées par des disques jaunes et rouges sur la carte.

Passer la souris dessus pour voir le nom de la station.

Cliquer dessus pour voir les observations et prévisions météorologiques.

Pour changer de carte: cliquez sur les boutons verts avec une croix noire pour zoomer, sur le bouton vert avec un tiret pour effectuer un zoom arrière, ou sur les flèches vertes pour les cartes adjacentes.


METAR-TAF: